sensor_id;sensor_type;location;lat;lon;timestamp;pressure;altitude;pressure_sealevel;temperature;humidity
78064;BME280;67429;51.596;-3.264;2023-08-12T00:01:26;99370.00;;;17.81;52.23
78064;BME280;67429;51.596;-3.264;2023-08-12T00:03:53;99368.42;;;17.18;53.13
78064;BME280;67429;51.596;-3.264;2023-08-12T00:06:17;99367.79;;;17.56;52.81
78064;BME280;67429;51.596;-3.264;2023-08-12T00:08:43;99362.57;;;17.65;52.18
78064;BME280;67429;51.596;-3.264;2023-08-12T00:11:09;99366.16;;;16.94;53.37
78064;BME280;67429;51.596;-3.264;2023-08-12T00:13:34;99365.10;;;17.73;51.58
78064;BME280;67429;51.596;-3.264;2023-08-12T00:15:59;99361.53;;;17.93;51.26
78064;BME280;67429;51.596;-3.264;2023-08-12T00:18:24;99359.09;;;17.35;53.17
78064;BME280;67429;51.596;-3.264;2023-08-12T00:20:50;99361.14;;;17.14;53.33
78064;BME280;67429;51.596;-3.264;2023-08-12T00:23:15;99361.35;;;17.70;52.05
78064;BME280;67429;51.596;-3.264;2023-08-12T00:25:41;99359.90;;;17.51;52.11
78064;BME280;67429;51.596;-3.264;2023-08-12T00:28:06;99360.16;;;17.23;53.85
78064;BME280;67429;51.596;-3.264;2023-08-12T00:30:32;99354.79;;;16.52;55.09
78064;BME280;67429;51.596;-3.264;2023-08-12T00:32:57;99350.32;;;17.52;53.26
78064;BME280;67429;51.596;-3.264;2023-08-12T00:35:23;99349.64;;;17.91;52.32
78064;BME280;67429;51.596;-3.264;2023-08-12T00:37:48;99349.83;;;18.01;51.12
78064;BME280;67429;51.596;-3.264;2023-08-12T00:40:14;99346.61;;;19.14;49.08
78064;BME280;67429;51.596;-3.264;2023-08-12T00:42:39;99347.09;;;19.13;48.61
78064;BME280;67429;51.596;-3.264;2023-08-12T00:45:09;99347.63;;;18.61;49.91
78064;BME280;67429;51.596;-3.264;2023-08-12T00:47:31;99344.96;;;18.96;49.40
78064;BME280;67429;51.596;-3.264;2023-08-12T00:49:55;99342.70;;;18.47;50.26
78064;BME280;67429;51.596;-3.264;2023-08-12T00:52:20;99336.43;;;17.91;51.00
78064;BME280;67429;51.596;-3.264;2023-08-12T00:54:46;99333.33;;;18.04;50.74
78064;BME280;67429;51.596;-3.264;2023-08-12T00:57:12;99327.84;;;17.73;51.18
78064;BME280;67429;51.596;-3.264;2023-08-12T00:59:37;99326.53;;;17.86;51.22
78064;BME280;67429;51.596;-3.264;2023-08-12T01:02:03;99326.33;;;17.15;52.73
78064;BME280;67429;51.596;-3.264;2023-08-12T01:04:27;99320.26;;;18.33;50.19
78064;BME280;67429;51.596;-3.264;2023-08-12T01:06:53;99312.99;;;17.82;51.06
78064;BME280;67429;51.596;-3.264;2023-08-12T01:09:18;99311.38;;;17.25;52.09
78064;BME280;67429;51.596;-3.264;2023-08-12T01:11:49;99308.13;;;17.41;52.23
78064;BME280;67429;51.596;-3.264;2023-08-12T01:14:14;99309.29;;;17.37;52.14
78064;BME280;67429;51.596;-3.264;2023-08-12T01:16:38;99299.24;;;18.06;51.39
78064;BME280;67429;51.596;-3.264;2023-08-12T01:19:00;99294.60;;;16.75;53.83
78064;BME280;67429;51.596;-3.264;2023-08-12T01:21:26;99297.01;;;15.18;57.90
78064;BME280;67429;51.596;-3.264;2023-08-12T01:23:50;99294.04;;;14.32;59.61
78064;BME280;67429;51.596;-3.264;2023-08-12T01:26:16;99292.28;;;16.06;56.13
78064;BME280;67429;51.596;-3.264;2023-08-12T01:28:41;99295.23;;;17.25;53.44
78064;BME280;67429;51.596;-3.264;2023-08-12T01:31:12;99293.68;;;15.94;55.62
78064;BME280;67429;51.596;-3.264;2023-08-12T01:33:39;99296.64;;;15.95;55.65
78064;BME280;67429;51.596;-3.264;2023-08-12T01:36:03;99300.07;;;17.11;53.75
78064;BME280;67429;51.596;-3.264;2023-08-12T01:38:26;99298.27;;;17.06;53.57
78064;BME280;67429;51.596;-3.264;2023-08-12T01:40:49;99293.02;;;16.24;55.76
78064;BME280;67429;51.596;-3.264;2023-08-12T01:43:14;99287.61;;;16.76;53.17
78064;BME280;67429;51.596;-3.264;2023-08-12T01:45:42;99288.39;;;16.90;53.97
78064;BME280;67429;51.596;-3.264;2023-08-12T01:48:06;99282.02;;;16.61;54.41
78064;BME280;67429;51.596;-3.264;2023-08-12T01:50:31;99282.02;;;16.12;56.62
78064;BME280;67429;51.596;-3.264;2023-08-12T01:52:56;99282.51;;;15.73;56.75
78064;BME280;67429;51.596;-3.264;2023-08-12T01:55:22;99280.12;;;15.65;57.57
78064;BME280;67429;51.596;-3.264;2023-08-12T01:57:48;99274.13;;;16.55;55.22
78064;BME280;67429;51.596;-3.264;2023-08-12T02:00:13;99269.13;;;16.89;55.04
78064;BME280;67429;51.596;-3.264;2023-08-12T02:02:38;99269.22;;;17.50;53.40
78064;BME280;67429;51.596;-3.264;2023-08-12T02:05:04;99262.31;;;15.88;55.31
78064;BME280;67429;51.596;-3.264;2023-08-12T02:07:29;99259.44;;;16.60;55.51
78064;BME280;67429;51.596;-3.264;2023-08-12T02:09:55;99258.25;;;15.04;58.63
78064;BME280;67429;51.596;-3.264;2023-08-12T02:12:20;99256.42;;;16.35;55.88
78064;BME280;67429;51.596;-3.264;2023-08-12T02:14:46;99251.06;;;17.23;53.88
78064;BME280;67429;51.596;-3.264;2023-08-12T02:17:11;99250.15;;;16.00;56.02
78064;BME280;67429;51.596;-3.264;2023-08-12T02:19:36;99246.36;;;15.92;57.33
78064;BME280;67429;51.596;-3.264;2023-08-12T02:22:02;99243.84;;;15.76;57.49
78064;BME280;67429;51.596;-3.264;2023-08-12T02:24:27;99244.99;;;15.18;59.34
78064;BME280;67429;51.596;-3.264;2023-08-12T02:26:52;99243.85;;;16.10;57.59
78064;BME280;67429;51.596;-3.264;2023-08-12T02:29:18;99239.72;;;15.09;58.89
78064;BME280;67429;51.596;-3.264;2023-08-12T02:31:44;99243.81;;;15.53;58.94
78064;BME280;67429;51.596;-3.264;2023-08-12T02:34:09;99240.35;;;15.64;58.38
78064;BME280;67429;51.596;-3.264;2023-08-12T02:36:34;99243.41;;;15.40;57.98
78064;BME280;67429;51.596;-3.264;2023-08-12T02:39:00;99239.30;;;15.17;59.38
78064;BME280;67429;51.596;-3.264;2023-08-12T02:41:26;99246.52;;;15.05;59.39
78064;BME280;67429;51.596;-3.264;2023-08-12T02:43:51;99246.22;;;14.77;60.07
78064;BME280;67429;51.596;-3.264;2023-08-12T02:46:17;99245.01;;;14.49;61.51
78064;BME280;67429;51.596;-3.264;2023-08-12T02:48:43;99240.29;;;15.12;59.44
78064;BME280;67429;51.596;-3.264;2023-08-12T02:51:07;99237.73;;;14.31;61.86
78064;BME280;67429;51.596;-3.264;2023-08-12T02:53:33;99229.82;;;15.23;59.36
78064;BME280;67429;51.596;-3.264;2023-08-12T02:55:59;99231.88;;;15.34;58.46
78064;BME280;67429;51.596;-3.264;2023-08-12T02:58:24;99229.77;;;16.05;56.83
78064;BME280;67429;51.596;-3.264;2023-08-12T03:00:50;99226.07;;;15.32;58.77
78064;BME280;67429;51.596;-3.264;2023-08-12T03:03:15;99230.98;;;14.84;59.90
78064;BME280;67429;51.596;-3.264;2023-08-12T03:05:41;99226.37;;;14.21;62.47
78064;BME280;67429;51.596;-3.264;2023-08-12T03:08:06;99221.76;;;14.42;61.42
78064;BME280;67429;51.596;-3.264;2023-08-12T03:10:33;99214.02;;;15.34;58.74
78064;BME280;67429;51.596;-3.264;2023-08-12T03:12:57;99215.78;;;15.20;58.98
78064;BME280;67429;51.596;-3.264;2023-08-12T03:15:23;99217.82;;;14.05;61.25
78064;BME280;67429;51.596;-3.264;2023-08-12T03:17:48;99209.61;;;15.27;59.67
78064;BME280;67429;51.596;-3.264;2023-08-12T03:20:13;99206.59;;;14.96;59.74
78064;BME280;67429;51.596;-3.264;2023-08-12T03:22:39;99208.43;;;16.45;56.35
78064;BME280;67429;51.596;-3.264;2023-08-12T03:25:05;99206.37;;;15.46;58.22
78064;BME280;67429;51.596;-3.264;2023-08-12T03:27:30;99204.99;;;14.59;60.15
78064;BME280;67429;51.596;-3.264;2023-08-12T03:29:56;99195.02;;;14.92;59.10
78064;BME280;67429;51.596;-3.264;2023-08-12T03:32:22;99193.51;;;15.20;59.39
78064;BME280;67429;51.596;-3.264;2023-08-12T03:34:46;99184.84;;;15.19;58.52
78064;BME280;67429;51.596;-3.264;2023-08-12T03:37:12;99183.04;;;15.06;59.48
78064;BME280;67429;51.596;-3.264;2023-08-12T03:39:37;99188.69;;;16.30;56.77
78064;BME280;67429;51.596;-3.264;2023-08-12T03:42:03;99187.30;;;15.52;57.54
78064;BME280;67429;51.596;-3.264;2023-08-12T03:44:28;99179.17;;;15.25;57.66
78064;BME280;67429;51.596;-3.264;2023-08-12T03:46:54;99179.42;;;16.02;56.45
78064;BME280;67429;51.596;-3.264;2023-08-12T03:49:19;99173.74;;;16.45;55.23
78064;BME280;67429;51.596;-3.264;2023-08-12T03:51:45;99173.69;;;16.97;53.77
78064;BME280;67429;51.596;-3.264;2023-08-12T03:54:10;99174.29;;;15.66;56.89
78064;BME280;67429;51.596;-3.264;2023-08-12T03:56:35;99169.67;;;14.94;59.53
78064;BME280;67429;51.596;-3.264;2023-08-12T03:59:00;99169.07;;;15.21;60.97
78064;BME280;67429;51.596;-3.264;2023-08-12T04:01:26;99167.54;;;16.08;58.48
78064;BME280;67429;51.596;-3.264;2023-08-12T04:03:51;99155.72;;;16.37;57.18
78064;BME280;67429;51.596;-3.264;2023-08-12T04:06:16;99162.09;;;16.28;57.04
78064;BME280;67429;51.596;-3.264;2023-08-12T04:08:42;99154.69;;;15.93;57.16
78064;BME280;67429;51.596;-3.264;2023-08-12T04:11:07;99154.36;;;14.20;62.21
78064;BME280;67429;51.596;-3.264;2023-08-12T04:13:33;99151.19;;;14.89;61.63
78064;BME280;67429;51.596;-3.264;2023-08-12T04:15:58;99146.60;;;14.70;62.08
78064;BME280;67429;51.596;-3.264;2023-08-12T04:18:23;99144.18;;;14.81;62.65
78064;BME280;67429;51.596;-3.264;2023-08-12T04:20:50;99147.67;;;13.98;65.94
78064;BME280;67429;51.596;-3.264;2023-08-12T04:23:15;99148.52;;;14.49;64.09
78064;BME280;67429;51.596;-3.264;2023-08-12T04:25:42;99148.74;;;15.73;59.36
78064;BME280;67429;51.596;-3.264;2023-08-12T04:28:06;99145.49;;;15.10;60.67
78064;BME280;67429;51.596;-3.264;2023-08-12T04:30:31;99140.46;;;14.87;62.40
78064;BME280;67429;51.596;-3.264;2023-08-12T04:32:56;99140.45;;;15.63;60.55
78064;BME280;67429;51.596;-3.264;2023-08-12T04:35:22;99136.59;;;14.52;61.86
78064;BME280;67429;51.596;-3.264;2023-08-12T04:37:47;99137.78;;;15.71;59.26
78064;BME280;67429;51.596;-3.264;2023-08-12T04:40:13;99138.65;;;15.27;60.57
78064;BME280;67429;51.596;-3.264;2023-08-12T04:42:39;99134.15;;;15.48;59.99
78064;BME280;67429;51.596;-3.264;2023-08-12T04:45:04;99139.83;;;15.25;60.10
78064;BME280;67429;51.596;-3.264;2023-08-12T04:47:30;99141.50;;;15.57;59.25
78064;BME280;67429;51.596;-3.264;2023-08-12T04:49:55;99136.96;;;16.75;57.01
78064;BME280;67429;51.596;-3.264;2023-08-12T04:52:20;99138.65;;;14.69;62.32
78064;BME280;67429;51.596;-3.264;2023-08-12T04:54:46;99139.29;;;15.26;61.19
78064;BME280;67429;51.596;-3.264;2023-08-12T04:57:11;99137.38;;;14.68;62.96
78064;BME280;67429;51.596;-3.264;2023-08-12T04:59:37;99139.48;;;14.08;64.99
78064;BME280;67429;51.596;-3.264;2023-08-12T05:02:03;99139.76;;;14.61;62.98
78064;BME280;67429;51.596;-3.264;2023-08-12T05:04:28;99140.51;;;15.13;61.88
78064;BME280;67429;51.596;-3.264;2023-08-12T05:06:53;99137.23;;;14.85;62.59
78064;BME280;67429;51.596;-3.264;2023-08-12T05:09:19;99137.67;;;15.99;59.48
78064;BME280;67429;51.596;-3.264;2023-08-12T05:11:44;99138.68;;;16.01;59.63
78064;BME280;67429;51.596;-3.264;2023-08-12T05:14:10;99132.79;;;14.68;62.75
78064;BME280;67429;51.596;-3.264;2023-08-12T05:16:35;99133.93;;;14.28;63.87
78064;BME280;67429;51.596;-3.264;2023-08-12T05:19:01;99139.83;;;15.82;60.18
78064;BME280;67429;51.596;-3.264;2023-08-12T05:21:26;99141.09;;;16.34;58.39
78064;BME280;67429;51.596;-3.264;2023-08-12T05:23:52;99139.53;;;15.59;60.17
78064;BME280;67429;51.596;-3.264;2023-08-12T05:26:18;99133.05;;;15.32;62.35
78064;BME280;67429;51.596;-3.264;2023-08-12T05:28:44;99129.84;;;15.00;61.74
78064;BME280;67429;51.596;-3.264;2023-08-12T05:31:08;99130.00;;;14.65;63.08
78064;BME280;67429;51.596;-3.264;2023-08-12T05:33:34;99135.34;;;15.72;59.31
78064;BME280;67429;51.596;-3.264;2023-08-12T05:35:59;99126.33;;;14.26;63.49
78064;BME280;67429;51.596;-3.264;2023-08-12T05:38:24;99132.39;;;14.77;63.03
78064;BME280;67429;51.596;-3.264;2023-08-12T05:40:50;99134.89;;;13.91;64.43
78064;BME280;67429;51.596;-3.264;2023-08-12T05:43:15;99132.67;;;14.80;62.98
78064;BME280;67429;51.596;-3.264;2023-08-12T05:45:41;99126.76;;;14.43;63.75
78064;BME280;67429;51.596;-3.264;2023-08-12T05:48:08;99124.52;;;14.72;63.68
78064;BME280;67429;51.596;-3.264;2023-08-12T05:50:32;99125.33;;;14.88;63.54
78064;BME280;67429;51.596;-3.264;2023-08-12T05:52:57;99128.83;;;16.46;59.22
78064;BME280;67429;51.596;-3.264;2023-08-12T05:55:23;99124.76;;;16.03;59.32
78064;BME280;67429;51.596;-3.264;2023-08-12T05:57:48;99122.67;;;15.59;60.63
78064;BME280;67429;51.596;-3.264;2023-08-12T06:00:14;99122.99;;;14.56;63.12
78064;BME280;67429;51.596;-3.264;2023-08-12T06:02:40;99126.95;;;15.00;61.84
78064;BME280;67429;51.596;-3.264;2023-08-12T06:05:06;99128.78;;;15.00;61.97
78064;BME280;67429;51.596;-3.264;2023-08-12T06:07:30;99126.53;;;14.56;62.47
78064;BME280;67429;51.596;-3.264;2023-08-12T06:09:56;99135.75;;;14.74;63.15
78064;BME280;67429;51.596;-3.264;2023-08-12T06:12:21;99134.80;;;14.53;63.98
78064;BME280;67429;51.596;-3.264;2023-08-12T06:14:47;99125.45;;;14.30;65.71
78064;BME280;67429;51.596;-3.264;2023-08-12T06:17:12;99137.58;;;14.19;67.58
78064;BME280;67429;51.596;-3.264;2023-08-12T06:19:37;99129.62;;;15.35;62.63
78064;BME280;67429;51.596;-3.264;2023-08-12T06:22:03;99135.46;;;13.96;65.49
78064;BME280;67429;51.596;-3.264;2023-08-12T06:24:29;99134.40;;;14.08;67.14
78064;BME280;67429;51.596;-3.264;2023-08-12T06:26:54;99131.85;;;13.77;68.25
78064;BME280;67429;51.596;-3.264;2023-08-12T06:29:20;99132.88;;;14.42;67.27
78064;BME280;67429;51.596;-3.264;2023-08-12T06:31:45;99136.29;;;15.04;65.10
78064;BME280;67429;51.596;-3.264;2023-08-12T06:34:10;99140.64;;;14.04;67.23
78064;BME280;67429;51.596;-3.264;2023-08-12T06:36:36;99135.50;;;15.04;65.64
78064;BME280;67429;51.596;-3.264;2023-08-12T06:39:02;99133.82;;;14.70;65.63
78064;BME280;67429;51.596;-3.264;2023-08-12T06:41:27;99126.46;;;14.66;66.01
78064;BME280;67429;51.596;-3.264;2023-08-12T06:43:52;99134.33;;;15.78;62.99
78064;BME280;67429;51.596;-3.264;2023-08-12T06:46:18;99132.91;;;16.25;61.03
78064;BME280;67429;51.596;-3.264;2023-08-12T06:48:43;99138.90;;;16.50;59.21
78064;BME280;67429;51.596;-3.264;2023-08-12T06:51:09;99138.61;;;14.89;64.28
78064;BME280;67429;51.596;-3.264;2023-08-12T06:53:34;99133.67;;;14.50;65.75
78064;BME280;67429;51.596;-3.264;2023-08-12T06:56:00;99145.63;;;14.29;67.03
78064;BME280;67429;51.596;-3.264;2023-08-12T06:58:26;99144.78;;;14.25;67.89
78064;BME280;67429;51.596;-3.264;2023-08-12T07:00:52;99133.50;;;13.96;68.06
78064;BME280;67429;51.596;-3.264;2023-08-12T07:03:16;99125.97;;;14.87;66.66
78064;BME280;67429;51.596;-3.264;2023-08-12T07:05:42;99130.09;;;15.78;64.26
78064;BME280;67429;51.596;-3.264;2023-08-12T07:08:07;99124.63;;;16.85;61.13
78064;BME280;67429;51.596;-3.264;2023-08-12T07:10:33;99127.89;;;16.04;62.31
78064;BME280;67429;51.596;-3.264;2023-08-12T07:12:58;99126.65;;;15.42;63.30
78064;BME280;67429;51.596;-3.264;2023-08-12T07:15:24;99120.96;;;16.89;59.83
78064;BME280;67429;51.596;-3.264;2023-08-12T07:17:49;99121.68;;;16.62;59.80
78064;BME280;67429;51.596;-3.264;2023-08-12T07:20:15;99119.66;;;16.93;58.40
78064;BME280;67429;51.596;-3.264;2023-08-12T07:22:41;99115.68;;;16.43;60.10
78064;BME280;67429;51.596;-3.264;2023-08-12T07:25:06;99113.49;;;16.82;59.67
78064;BME280;67429;51.596;-3.264;2023-08-12T07:27:31;99116.99;;;16.31;60.57
78064;BME280;67429;51.596;-3.264;2023-08-12T07:29:56;99118.28;;;16.79;60.23
78064;BME280;67429;51.596;-3.264;2023-08-12T07:32:22;99116.49;;;16.77;59.55
78064;BME280;67429;51.596;-3.264;2023-08-12T07:34:47;99118.63;;;16.47;61.17
78064;BME280;67429;51.596;-3.264;2023-08-12T07:37:12;99111.42;;;16.05;61.17
78064;BME280;67429;51.596;-3.264;2023-08-12T07:39:38;99128.94;;;15.81;62.02
78064;BME280;67429;51.596;-3.264;2023-08-12T07:42:03;99121.21;;;14.66;65.49
78064;BME280;67429;51.596;-3.264;2023-08-12T07:44:29;99132.90;;;16.11;62.84
78064;BME280;67429;51.596;-3.264;2023-08-12T07:46:54;99136.52;;;15.02;65.69
78064;BME280;67429;51.596;-3.264;2023-08-12T07:49:20;99136.19;;;15.52;63.71
78064;BME280;67429;51.596;-3.264;2023-08-12T07:51:45;99149.45;;;14.31;66.87
78064;BME280;67429;51.596;-3.264;2023-08-12T07:54:11;99147.34;;;13.77;69.94
78064;BME280;67429;51.596;-3.264;2023-08-12T07:56:36;99150.85;;;13.68;69.52
78064;BME280;67429;51.596;-3.264;2023-08-12T07:59:02;99157.07;;;13.53;70.74
78064;BME280;67429;51.596;-3.264;2023-08-12T08:01:27;99157.04;;;14.58;68.40
78064;BME280;67429;51.596;-3.264;2023-08-12T08:03:53;99159.15;;;14.44;68.38
78064;BME280;67429;51.596;-3.264;2023-08-12T08:06:18;99161.92;;;13.64;70.31
78064;BME280;67429;51.596;-3.264;2023-08-12T08:08:43;99159.56;;;14.15;68.86
78064;BME280;67429;51.596;-3.264;2023-08-12T08:11:08;99158.15;;;14.61;67.21
78064;BME280;67429;51.596;-3.264;2023-08-12T08:13:34;99154.97;;;15.79;63.12
78064;BME280;67429;51.596;-3.264;2023-08-12T08:15:59;99146.81;;;16.35;61.28
78064;BME280;67429;51.596;-3.264;2023-08-12T08:18:25;99148.53;;;15.61;63.61
78064;BME280;67429;51.596;-3.264;2023-08-12T08:20:50;99149.73;;;15.76;64.46
78064;BME280;67429;51.596;-3.264;2023-08-12T08:23:16;99151.28;;;15.07;63.18
78064;BME280;67429;51.596;-3.264;2023-08-12T08:25:41;99147.37;;;15.13;62.87
78064;BME280;67429;51.596;-3.264;2023-08-12T08:28:07;99148.49;;;16.72;60.67
78064;BME280;67429;51.596;-3.264;2023-08-12T08:30:32;99145.75;;;16.25;61.37
78064;BME280;67429;51.596;-3.264;2023-08-12T08:32:57;99138.66;;;16.04;62.23
78064;BME280;67429;51.596;-3.264;2023-08-12T08:35:23;99141.23;;;16.25;61.14
78064;BME280;67429;51.596;-3.264;2023-08-12T08:37:48;99140.20;;;16.69;61.83
78064;BME280;67429;51.596;-3.264;2023-08-12T08:40:14;99137.78;;;17.07;59.21
78064;BME280;67429;51.596;-3.264;2023-08-12T08:42:41;99143.10;;;16.85;59.92
78064;BME280;67429;51.596;-3.264;2023-08-12T08:45:09;99139.82;;;16.61;60.64
78064;BME280;67429;51.596;-3.264;2023-08-12T08:47:31;99134.10;;;14.67;67.39
78064;BME280;67429;51.596;-3.264;2023-08-12T08:49:56;99142.50;;;14.43;68.93
78064;BME280;67429;51.596;-3.264;2023-08-12T08:52:22;99138.25;;;15.25;65.69
78064;BME280;67429;51.596;-3.264;2023-08-12T08:54:47;99143.23;;;15.19;65.97
78064;BME280;67429;51.596;-3.264;2023-08-12T08:57:12;99141.69;;;16.76;62.29
78064;BME280;67429;51.596;-3.264;2023-08-12T08:59:37;99140.96;;;15.95;63.62
78064;BME280;67429;51.596;-3.264;2023-08-12T09:02:03;99138.13;;;15.47;63.87
78064;BME280;67429;51.596;-3.264;2023-08-12T09:04:28;99137.21;;;15.16;65.08
78064;BME280;67429;51.596;-3.264;2023-08-12T09:06:54;99137.77;;;14.55;67.32
78064;BME280;67429;51.596;-3.264;2023-08-12T09:09:20;99133.54;;;15.55;66.52
78064;BME280;67429;51.596;-3.264;2023-08-12T09:11:45;99133.35;;;15.99;64.13
78064;BME280;67429;51.596;-3.264;2023-08-12T09:14:10;99140.89;;;16.06;62.74
78064;BME280;67429;51.596;-3.264;2023-08-12T09:16:36;99134.24;;;16.01;64.42
78064;BME280;67429;51.596;-3.264;2023-08-12T09:19:01;99133.43;;;16.47;63.17
78064;BME280;67429;51.596;-3.264;2023-08-12T09:21:27;99125.23;;;17.58;60.70
78064;BME280;67429;51.596;-3.264;2023-08-12T09:23:52;99123.90;;;15.29;65.24
78064;BME280;67429;51.596;-3.264;2023-08-12T09:26:19;99134.14;;;15.78;65.47
78064;BME280;67429;51.596;-3.264;2023-08-12T09:28:44;99136.56;;;15.06;67.47
78064;BME280;67429;51.596;-3.264;2023-08-12T09:31:21;99157.37;;;16.16;64.90
78064;BME280;67429;51.596;-3.264;2023-08-12T09:33:39;99149.70;;;14.89;67.28
78064;BME280;67429;51.596;-3.264;2023-08-12T09:36:01;99141.84;;;15.21;67.35
78064;BME280;67429;51.596;-3.264;2023-08-12T09:38:26;99148.92;;;15.85;65.60
78064;BME280;67429;51.596;-3.264;2023-08-12T09:40:52;99141.46;;;16.16;66.05
78064;BME280;67429;51.596;-3.264;2023-08-12T09:43:17;99142.19;;;16.62;63.42
78064;BME280;67429;51.596;-3.264;2023-08-12T09:45:44;99145.88;;;16.08;63.78
78064;BME280;67429;51.596;-3.264;2023-08-12T09:48:09;99143.27;;;16.67;63.13
78064;BME280;67429;51.596;-3.264;2023-08-12T09:50:33;99133.94;;;16.44;63.87
78064;BME280;67429;51.596;-3.264;2023-08-12T09:53:00;99138.32;;;17.47;60.84
78064;BME280;67429;51.596;-3.264;2023-08-12T09:55:25;99140.06;;;16.53;63.11
78064;BME280;67429;51.596;-3.264;2023-08-12T09:57:51;99135.65;;;16.13;65.34
78064;BME280;67429;51.596;-3.264;2023-08-12T10:00:16;99152.77;;;14.83;70.56
78064;BME280;67429;51.596;-3.264;2023-08-12T10:02:42;99145.72;;;15.83;66.62
78064;BME280;67429;51.596;-3.264;2023-08-12T10:05:07;99153.64;;;14.86;68.78
78064;BME280;67429;51.596;-3.264;2023-08-12T10:07:31;99182.00;;;14.63;71.02
78064;BME280;67429;51.596;-3.264;2023-08-12T10:09:57;99175.47;;;14.07;71.45
78064;BME280;67429;51.596;-3.264;2023-08-12T10:12:23;99200.70;;;13.30;73.94
78064;BME280;67429;51.596;-3.264;2023-08-12T10:14:48;99192.67;;;14.08;72.81
78064;BME280;67429;51.596;-3.264;2023-08-12T10:17:14;99183.02;;;14.39;72.78
78064;BME280;67429;51.596;-3.264;2023-08-12T10:19:44;99170.35;;;15.32;67.95
78064;BME280;67429;51.596;-3.264;2023-08-12T10:22:05;99174.52;;;15.36;68.60
78064;BME280;67429;51.596;-3.264;2023-08-12T10:24:30;99162.83;;;15.13;67.66
78064;BME280;67429;51.596;-3.264;2023-08-12T10:26:55;99167.76;;;15.07;69.74
78064;BME280;67429;51.596;-3.264;2023-08-12T10:29:22;99165.17;;;15.31;68.16
78064;BME280;67429;51.596;-3.264;2023-08-12T10:31:47;99161.26;;;14.81;69.73
78064;BME280;67429;51.596;-3.264;2023-08-12T10:34:18;99162.34;;;16.04;66.80
78064;BME280;67429;51.596;-3.264;2023-08-12T10:36:41;99167.95;;;15.84;66.81
78064;BME280;67429;51.596;-3.264;2023-08-12T10:39:08;99174.82;;;15.30;67.98
78064;BME280;67429;51.596;-3.264;2023-08-12T10:41:28;99169.72;;;15.82;69.07
78064;BME280;67429;51.596;-3.264;2023-08-12T10:43:54;99162.29;;;15.56;68.06
78064;BME280;67429;51.596;-3.264;2023-08-12T10:46:23;99160.86;;;15.55;69.42
78064;BME280;67429;51.596;-3.264;2023-08-12T10:48:59;99164.91;;;16.22;66.47
78064;BME280;67429;51.596;-3.264;2023-08-12T10:51:10;99158.54;;;15.19;67.32
78064;BME280;67429;51.596;-3.264;2023-08-12T10:53:38;99143.96;;;14.70;68.69
78064;BME280;67429;51.596;-3.264;2023-08-12T10:56:04;99143.87;;;15.02;69.91
78064;BME280;67429;51.596;-3.264;2023-08-12T10:58:28;99161.85;;;15.69;70.01
78064;BME280;67429;51.596;-3.264;2023-08-12T11:00:53;99159.26;;;15.00;67.99
78064;BME280;67429;51.596;-3.264;2023-08-12T11:03:17;99156.31;;;15.45;68.60
78064;BME280;67429;51.596;-3.264;2023-08-12T11:05:42;99147.83;;;15.18;68.05
78064;BME280;67429;51.596;-3.264;2023-08-12T11:08:08;99152.32;;;15.93;65.37
78064;BME280;67429;51.596;-3.264;2023-08-12T11:10:34;99148.16;;;16.24;64.06
78064;BME280;67429;51.596;-3.264;2023-08-12T11:12:59;99153.81;;;16.50;64.05
78064;BME280;67429;51.596;-3.264;2023-08-12T11:15:30;99155.77;;;17.32;64.09
78064;BME280;67429;51.596;-3.264;2023-08-12T11:17:50;99150.56;;;17.07;63.35
78064;BME280;67429;51.596;-3.264;2023-08-12T11:20:14;99154.18;;;16.57;63.77
78064;BME280;67429;51.596;-3.264;2023-08-12T11:22:42;99152.52;;;15.69;64.97
78064;BME280;67429;51.596;-3.264;2023-08-12T11:25:06;99153.18;;;16.31;62.82
78064;BME280;67429;51.596;-3.264;2023-08-12T11:27:36;99149.78;;;16.04;63.62
78064;BME280;67429;51.596;-3.264;2023-08-12T11:29:56;99153.00;;;16.82;61.85
78064;BME280;67429;51.596;-3.264;2023-08-12T11:32:26;99154.46;;;17.62;59.28
78064;BME280;67429;51.596;-3.264;2023-08-12T11:34:47;99157.46;;;17.43;60.81
78064;BME280;67429;51.596;-3.264;2023-08-12T11:37:12;99161.02;;;16.32;60.60
78064;BME280;67429;51.596;-3.264;2023-08-12T11:39:38;99170.92;;;16.65;60.70
78064;BME280;67429;51.596;-3.264;2023-08-12T11:42:03;99178.35;;;15.55;62.68
78064;BME280;67429;51.596;-3.264;2023-08-12T11:44:28;99170.58;;;15.73;62.29
78064;BME280;67429;51.596;-3.264;2023-08-12T11:46:54;99179.68;;;15.50;66.17
78064;BME280;67429;51.596;-3.264;2023-08-12T11:49:19;99188.44;;;15.63;65.32
78064;BME280;67429;51.596;-3.264;2023-08-12T11:51:47;99183.53;;;15.48;66.80
78064;BME280;67429;51.596;-3.264;2023-08-12T11:54:10;99179.89;;;15.24;67.46
78064;BME280;67429;51.596;-3.264;2023-08-12T11:56:35;99176.72;;;15.21;67.37
78064;BME280;67429;51.596;-3.264;2023-08-12T11:59:01;99188.67;;;15.14;68.68
78064;BME280;67429;51.596;-3.264;2023-08-12T12:01:26;99190.43;;;15.77;65.69
78064;BME280;67429;51.596;-3.264;2023-08-12T12:03:52;99206.78;;;14.78;68.09
78064;BME280;67429;51.596;-3.264;2023-08-12T12:06:17;99210.22;;;13.80;70.16
78064;BME280;67429;51.596;-3.264;2023-08-12T12:08:44;99207.36;;;14.25;71.37
78064;BME280;67429;51.596;-3.264;2023-08-12T12:11:08;99192.95;;;14.01;72.13
78064;BME280;67429;51.596;-3.264;2023-08-12T12:13:34;99189.24;;;14.13;72.32
78064;BME280;67429;51.596;-3.264;2023-08-12T12:15:59;99194.10;;;13.60;72.08
78064;BME280;67429;51.596;-3.264;2023-08-12T12:18:25;99190.37;;;14.41;70.10
78064;BME280;67429;51.596;-3.264;2023-08-12T12:20:55;99193.28;;;16.48;66.99
78064;BME280;67429;51.596;-3.264;2023-08-12T12:23:16;99193.56;;;14.65;69.19
78064;BME280;67429;51.596;-3.264;2023-08-12T12:25:41;99179.37;;;14.63;69.45
78064;BME280;67429;51.596;-3.264;2023-08-12T12:28:06;99185.74;;;14.85;69.90
78064;BME280;67429;51.596;-3.264;2023-08-12T12:30:33;99180.22;;;15.59;67.52
78064;BME280;67429;51.596;-3.264;2023-08-12T12:32:58;99191.09;;;15.67;66.10
78064;BME280;67429;51.596;-3.264;2023-08-12T12:35:23;99189.05;;;14.98;68.91
78064;BME280;67429;51.596;-3.264;2023-08-12T12:37:48;99196.45;;;14.40;71.13
78064;BME280;67429;51.596;-3.264;2023-08-12T12:40:14;99206.20;;;14.55;71.92